Time;durP1;ratioP1;P1;durP2;ratioP2;P2;SDS_P1;SDS_P2;PMS_P1;PMS_P2;Temp;Humidity;BMP_temperature;BMP_pressure;BME280_temperature;BME280_humidity;BME280_pressure;Samples;Min_cycle;Max_cycle;Signal;HPM_P1;HPM_P2
2022/01/16 00:01:06;;;;;;;7.25;6.38;;;;;;;;;;6174003;23;20017;-42
2022/01/16 00:06:17;;;;;;;7.05;6.43;;;;;;;;;;6174440;23;20473;-42
2022/01/16 00:08:42;;;;;;;9.10;7.25;;;;;;;;;;6176614;23;20016;-41
2022/01/16 00:11:08;;;;;;;7.20;6.60;;;;;;;;;;6174292;23;20063;-41
2022/01/16 00:13:33;;;;;;;6.88;6.28;;;;;;;;;;6176161;23;20116;-42
2022/01/16 00:15:58;;;;;;;7.13;6.43;;;;;;;;;;6176094;23;20009;-41
2022/01/16 00:18:27;;;;;;;7.85;7.15;;;;;;;;;;6175750;23;20035;-43
2022/01/16 00:20:52;;;;;;;7.00;6.37;;;;;;;;;;6178052;23;20059;-41
2022/01/16 00:23:26;;;;;;;6.80;6.20;;;;;;;;;;6178739;23;20024;-41
2022/01/16 00:25:53;;;;;;;7.72;7.00;;;;;;;;;;6179502;23;20481;-43
2022/01/16 00:28:20;;;;;;;7.28;6.57;;;;;;;;;;6178398;23;20040;-41
2022/01/16 00:30:45;;;;;;;6.97;6.28;;;;;;;;;;6178772;23;20013;-41
2022/01/16 00:33:11;;;;;;;6.75;6.15;;;;;;;;;;6179272;23;20036;-41
2022/01/16 00:35:37;;;;;;;6.93;6.32;;;;;;;;;;6178084;23;20147;-42
2022/01/16 00:38:03;;;;;;;7.38;6.78;;;;;;;;;;6178867;23;20021;-42
2022/01/16 00:40:29;;;;;;;8.02;7.22;;;;;;;;;;6178277;23;20455;-42
2022/01/16 00:42:55;;;;;;;8.20;6.70;;;;;;;;;;6178846;23;20043;-41
2022/01/16 00:45:21;;;;;;;7.55;6.85;;;;;;;;;;6177545;23;20013;-42
2022/01/16 00:47:46;;;;;;;9.30;6.78;;;;;;;;;;6178539;23;20485;-42
2022/01/16 00:50:11;;;;;;;7.38;6.63;;;;;;;;;;6178005;23;20546;-43
2022/01/16 00:52:37;;;;;;;7.07;6.45;;;;;;;;;;6178762;23;20063;-43
2022/01/16 00:55:03;;;;;;;7.78;7.03;;;;;;;;;;6178752;23;20578;-42
2022/01/16 00:57:29;;;;;;;7.25;6.55;;;;;;;;;;6177796;23;20031;-42
2022/01/16 00:59:54;;;;;;;7.50;6.80;;;;;;;;;;6179218;23;20095;-44
2022/01/16 01:02:20;;;;;;;7.40;6.60;;;;;;;;;;6178437;23;20017;-42
2022/01/16 01:04:47;;;;;;;9.50;6.75;;;;;;;;;;6178455;23;20084;-42
2022/01/16 01:07:12;;;;;;;7.57;6.88;;;;;;;;;;6177899;23;20485;-41
2022/01/16 01:09:37;;;;;;;7.32;6.60;;;;;;;;;;6178212;23;20013;-41
2022/01/16 01:12:05;;;;;;;6.68;6.07;;;;;;;;;;6179207;23;20017;-42
2022/01/16 01:15:13;;;;;;;6.47;5.88;;;;;;;;;;6178150;23;20175;-42
2022/01/16 01:17:24;;;;;;;6.07;5.57;;;;;;;;;;6150255;23;20440;-41
2022/01/16 01:19:49;;;;;;;6.80;6.20;;;;;;;;;;6178956;23;20478;-41
2022/01/16 01:22:14;;;;;;;6.38;5.82;;;;;;;;;;6178276;23;20021;-41
2022/01/16 01:24:40;;;;;;;6.78;6.18;;;;;;;;;;6179499;23;20099;-41
2022/01/16 01:27:17;;;;;;;6.95;6.35;;;;;;;;;;6178278;23;20017;-42
2022/01/16 01:29:48;;;;;;;5.57;5.07;;;;;;;;;;6178745;23;20036;-41
2022/01/16 01:32:14;;;;;;;6.57;5.97;;;;;;;;;;6177212;23;20025;-43
2022/01/16 01:34:39;;;;;;;6.75;6.18;;;;;;;;;;6178748;23;20009;-41
2022/01/16 01:37:04;;;;;;;6.35;5.75;;;;;;;;;;6178139;23;20028;-41
2022/01/16 01:39:30;;;;;;;6.90;6.22;;;;;;;;;;6176460;23;20017;-42
2022/01/16 01:42:04;;;;;;;7.70;6.85;;;;;;;;;;6177884;23;20009;-42
2022/01/16 01:52:41;;;;;;;7.93;7.22;;;;;;;;;;6178051;23;20071;-42
2022/01/16 01:55:07;;;;;;;9.88;7.25;;;;;;;;;;6178269;23;20076;-41
2022/01/16 01:57:32;;;;;;;7.18;6.57;;;;;;;;;;6177547;23;20067;-41
2022/01/16 01:59:57;;;;;;;7.82;7.03;;;;;;;;;;6178649;23;20095;-41
2022/01/16 02:02:26;;;;;;;7.88;6.70;;;;;;;;;;6178160;23;20470;-43
2022/01/16 02:04:51;;;;;;;7.93;7.13;;;;;;;;;;6178519;23;20009;-41
2022/01/16 02:07:16;;;;;;;8.82;7.90;;;;;;;;;;6176870;23;20019;-43
2022/01/16 02:09:42;;;;;;;8.95;7.22;;;;;;;;;;6178570;23;20083;-41
2022/01/16 02:12:08;;;;;;;8.18;7.40;;;;;;;;;;6177897;23;20028;-41
2022/01/16 02:14:49;;;;;;;7.95;7.20;;;;;;;;;;6177724;23;20013;-42
2022/01/16 02:28:22;;;;;;;8.35;7.28;;;;;;;;;;6177905;23;20072;-42
2022/01/16 02:36:08;;;;;;;6.72;6.13;;;;;;;;;;6180770;23;20024;-41
2022/01/16 02:38:33;;;;;;;7.35;6.65;;;;;;;;;;6177023;23;20084;-41
2022/01/16 02:41:03;;;;;;;7.85;7.15;;;;;;;;;;6178058;23;20052;-41
2022/01/16 02:43:33;;;;;;;9.00;7.22;;;;;;;;;;6176321;23;20475;-43
2022/01/16 02:48:40;;;;;;;8.35;7.43;;;;;;;;;;6177418;23;20013;-43
2022/01/16 02:51:05;;;;;;;7.15;6.55;;;;;;;;;;6177950;23;20009;-41
2022/01/16 02:53:30;;;;;;;7.55;6.85;;;;;;;;;;6176387;23;20446;-41
2022/01/16 02:55:55;;;;;;;7.68;6.25;;;;;;;;;;6178576;23;20017;-41
2022/01/16 02:58:21;;;;;;;7.47;6.78;;;;;;;;;;6177057;23;20021;-43
2022/01/16 03:00:46;;;;;;;7.65;6.85;;;;;;;;;;6177578;23;20096;-41
2022/01/16 03:03:11;;;;;;;6.78;6.15;;;;;;;;;;6176796;23;20091;-41
2022/01/16 03:05:37;;;;;;;7.05;5.95;;;;;;;;;;6177966;23;20021;-44
2022/01/16 03:08:04;;;;;;;6.95;6.25;;;;;;;;;;6175559;23;20025;-45
2022/01/16 03:12:57;;;;;;;7.63;6.82;;;;;;;;;;6177965;23;20012;-41
2022/01/16 03:15:23;;;;;;;7.20;6.60;;;;;;;;;;6176253;23;20458;-41
2022/01/16 03:23:06;;;;;;;7.10;6.45;;;;;;;;;;6177834;23;20047;-42
2022/01/16 03:25:31;;;;;;;7.22;6.55;;;;;;;;;;6176505;23;20013;-41
2022/01/16 03:27:57;;;;;;;6.63;6.03;;;;;;;;;;6177712;23;20019;-41
2022/01/16 03:30:22;;;;;;;6.38;5.78;;;;;;;;;;6176201;23;20017;-42
2022/01/16 03:32:47;;;;;;;6.95;6.25;;;;;;;;;;6171033;23;20036;-41
2022/01/16 03:35:12;;;;;;;6.80;6.20;;;;;;;;;;6146955;23;20646;-43
2022/01/16 03:37:38;;;;;;;6.82;6.22;;;;;;;;;;6148109;23;20064;-43
2022/01/16 03:40:04;;;;;;;7.20;6.45;;;;;;;;;;6148310;23;20359;-44
2022/01/16 03:42:32;;;;;;;7.40;6.78;;;;;;;;;;6148545;23;20084;-44
2022/01/16 03:44:58;;;;;;;7.50;6.80;;;;;;;;;;6148718;23;20080;-44
2022/01/16 03:47:23;;;;;;;7.55;6.93;;;;;;;;;;6148689;23;20719;-41
2022/01/16 03:49:48;;;;;;;5.93;5.43;;;;;;;;;;6129234;23;20029;-41
2022/01/16 03:52:13;;;;;;;6.57;5.97;;;;;;;;;;6166226;23;20029;-41
2022/01/16 03:54:39;;;;;;;6.47;5.88;;;;;;;;;;6175766;23;20079;-41
2022/01/16 03:57:04;;;;;;;6.50;5.93;;;;;;;;;;6147188;23;20091;-42
2022/01/16 03:59:29;;;;;;;8.55;6.28;;;;;;;;;;6175692;23;20020;-41
2022/01/16 04:01:54;;;;;;;8.00;7.20;;;;;;;;;;6175898;23;20537;-41
2022/01/16 04:04:20;;;;;;;6.82;6.15;;;;;;;;;;6175055;23;20080;-41
2022/01/16 04:06:45;;;;;;;6.35;5.78;;;;;;;;;;6176532;23;20435;-41
2022/01/16 04:09:10;;;;;;;6.75;6.15;;;;;;;;;;6177590;23;20104;-41
2022/01/16 04:11:42;;;;;;;6.68;6.18;;;;;;;;;;6176833;23;20037;-41
2022/01/16 04:14:10;;;;;;;8.15;5.95;;;;;;;;;;6175244;23;20063;-41
2022/01/16 04:16:36;;;;;;;5.70;5.20;;;;;;;;;;6176192;23;20117;-41
2022/01/16 04:19:02;;;;;;;6.00;5.40;;;;;;;;;;6177353;23;20465;-41
2022/01/16 04:21:28;;;;;;;5.80;5.30;;;;;;;;;;6177068;23;20020;-42
2022/01/16 04:23:54;;;;;;;6.43;5.82;;;;;;;;;;6177246;23;20017;-41
2022/01/16 04:26:20;;;;;;;7.43;5.45;;;;;;;;;;6176646;23;20323;-43
2022/01/16 04:28:46;;;;;;;7.22;6.63;;;;;;;;;;6176959;23;20113;-42
2022/01/16 04:31:12;;;;;;;6.47;5.88;;;;;;;;;;6176744;23;20017;-42
2022/01/16 04:33:37;;;;;;;6.07;5.57;;;;;;;;;;6175770;23;20060;-42
2022/01/16 04:36:03;;;;;;;6.57;5.70;;;;;;;;;;6177148;23;20021;-42
2022/01/16 04:38:28;;;;;;;5.85;5.38;;;;;;;;;;6176066;23;20056;-41
2022/01/16 04:43:53;;;;;;;6.10;5.60;;;;;;;;;;6176825;23;20059;-41
2022/01/16 04:46:19;;;;;;;6.25;5.70;;;;;;;;;;6175470;23;20504;-42
2022/01/16 04:48:44;;;;;;;5.80;5.30;;;;;;;;;;6176949;23;20032;-41
2022/01/16 04:51:10;;;;;;;5.50;5.00;;;;;;;;;;6200192;23;20016;-44
2022/01/16 04:53:36;;;;;;;6.88;6.28;;;;;;;;;;6208594;23;20081;-41
2022/01/16 04:56:01;;;;;;;5.70;5.20;;;;;;;;;;6208680;23;20020;-41
2022/01/16 04:58:28;;;;;;;5.75;5.25;;;;;;;;;;6208567;23;20028;-41
2022/01/16 05:00:54;;;;;;;7.18;6.57;;;;;;;;;;6208609;23;20012;-42
2022/01/16 05:03:20;;;;;;;5.60;5.10;;;;;;;;;;6208242;23;20323;-41
2022/01/16 05:05:45;;;;;;;6.05;5.55;;;;;;;;;;6208899;23;20016;-41
2022/01/16 05:08:10;;;;;;;6.28;5.68;;;;;;;;;;6209283;23;20020;-41
2022/01/16 05:10:35;;;;;;;6.00;5.40;;;;;;;;;;6208462;23;20016;-41
2022/01/16 05:13:27;;;;;;;6.28;5.68;;;;;;;;;;6208835;23;20023;-43
2022/01/16 05:18:30;;;;;;;5.75;5.22;;;;;;;;;;6208181;23;20368;-41
2022/01/16 05:20:55;;;;;;;5.65;5.15;;;;;;;;;;6208767;23;20680;-41
2022/01/16 05:23:20;;;;;;;7.07;6.22;;;;;;;;;;6208160;23;20032;-41
2022/01/16 05:25:46;;;;;;;5.93;5.43;;;;;;;;;;6206682;23;20015;-41
2022/01/16 05:28:11;;;;;;;5.78;5.18;;;;;;;;;;6208442;23;20430;-41
2022/01/16 05:30:36;;;;;;;5.75;5.25;;;;;;;;;;6207981;23;20005;-41
2022/01/16 05:33:01;;;;;;;6.00;5.45;;;;;;;;;;6207640;23;20021;-41
2022/01/16 05:35:27;;;;;;;5.95;5.35;;;;;;;;;;6207870;23;20012;-43
2022/01/16 05:37:52;;;;;;;6.22;5.45;;;;;;;;;;6209055;23;20028;-42
2022/01/16 05:40:17;;;;;;;5.07;4.68;;;;;;;;;;6207644;23;20016;-41
2022/01/16 05:42:42;;;;;;;5.53;5.03;;;;;;;;;;6209159;23;20024;-41
2022/01/16 05:45:08;;;;;;;5.00;4.60;;;;;;;;;;6208385;23;20013;-41
2022/01/16 05:47:33;;;;;;;6.40;5.53;;;;;;;;;;6208611;23;20531;-43
2022/01/16 05:49:59;;;;;;;6.38;5.88;;;;;;;;;;6208044;23;20044;-41
2022/01/16 05:52:24;;;;;;;6.50;5.10;;;;;;;;;;6208240;23;20492;-41
2022/01/16 05:54:49;;;;;;;6.25;5.22;;;;;;;;;;6208450;23;20028;-41
2022/01/16 05:57:14;;;;;;;5.28;4.82;;;;;;;;;;6208002;23;20033;-41
2022/01/16 05:59:40;;;;;;;6.03;5.13;;;;;;;;;;6207811;23;20012;-43
2022/01/16 06:02:05;;;;;;;8.15;6.22;;;;;;;;;;6208227;23;20449;-41
2022/01/16 06:04:30;;;;;;;5.85;5.10;;;;;;;;;;6206843;23;20246;-41
2022/01/16 06:06:55;;;;;;;7.00;6.35;;;;;;;;;;6207071;23;20044;-41
2022/01/16 06:09:21;;;;;;;9.70;7.85;;;;;;;;;;6207603;23;20036;-41
2022/01/16 06:11:46;;;;;;;6.93;6.32;;;;;;;;;;6207375;23;20008;-41
2022/01/16 06:14:11;;;;;;;8.15;7.10;;;;;;;;;;6207533;23;20047;-41
2022/01/16 06:16:38;;;;;;;9.27;7.45;;;;;;;;;;6207996;23;20012;-41
2022/01/16 06:19:03;;;;;;;8.25;7.45;;;;;;;;;;6208401;23;20025;-42
2022/01/16 06:21:28;;;;;;;8.63;7.57;;;;;;;;;;6207051;23;20043;-41
2022/01/16 06:23:53;;;;;;;15.35;9.48;;;;;;;;;;6207632;23;20088;-42
2022/01/16 06:26:19;;;;;;;25.08;10.18;;;;;;;;;;6207661;23;20436;-40
2022/01/16 06:28:44;;;;;;;20.83;10.40;;;;;;;;;;6207669;23;20351;-41
2022/01/16 06:31:09;;;;;;;20.95;10.45;;;;;;;;;;6207764;23;20357;-41
2022/01/16 06:33:35;;;;;;;9.90;8.90;;;;;;;;;;6207153;23;20373;-41
2022/01/16 06:36:01;;;;;;;23.77;12.13;;;;;;;;;;6208656;23;20012;-41
2022/01/16 06:38:27;;;;;;;14.32;9.75;;;;;;;;;;6207736;23;20024;-42
2022/01/16 06:40:52;;;;;;;21.13;10.82;;;;;;;;;;6208723;23;20023;-41
2022/01/16 06:43:17;;;;;;;39.50;13.40;;;;;;;;;;6208693;23;20020;-43
2022/01/16 06:45:42;;;;;;;19.23;11.23;;;;;;;;;;6208984;23;20005;-44
2022/01/16 06:48:08;;;;;;;11.85;9.43;;;;;;;;;;6208586;23;20115;-43
2022/01/16 06:50:33;;;;;;;12.70;10.52;;;;;;;;;;6207597;23;20044;-45
2022/01/16 06:52:58;;;;;;;12.25;10.45;;;;;;;;;;6208354;23;20017;-45
2022/01/16 06:55:24;;;;;;;10.55;9.52;;;;;;;;;;6207853;23;20021;-42
2022/01/16 06:57:49;;;;;;;12.30;11.00;;;;;;;;;;6207999;23;20024;-44
2022/01/16 07:00:14;;;;;;;11.65;10.50;;;;;;;;;;6206657;23;20542;-41
2022/01/16 07:02:39;;;;;;;10.40;9.40;;;;;;;;;;6207907;23;20903;-43
2022/01/16 07:05:05;;;;;;;10.73;9.73;;;;;;;;;;6206721;23;20490;-43
2022/01/16 07:07:30;;;;;;;11.77;9.88;;;;;;;;;;6208574;23;21292;-41
2022/01/16 07:09:56;;;;;;;11.32;10.23;;;;;;;;;;6208102;23;20012;-42
2022/01/16 07:12:21;;;;;;;14.23;10.55;;;;;;;;;;6207375;23;20036;-43
2022/01/16 07:14:48;;;;;;;10.30;9.40;;;;;;;;;;6207365;23;20040;-42
2022/01/16 07:17:13;;;;;;;10.95;9.85;;;;;;;;;;6207278;23;20350;-42
2022/01/16 07:19:38;;;;;;;10.57;9.57;;;;;;;;;;6206982;23;20032;-42
2022/01/16 07:22:03;;;;;;;11.98;10.45;;;;;;;;;;6207052;23;20017;-41
2022/01/16 07:24:29;;;;;;;10.60;9.57;;;;;;;;;;6206746;23;20016;-41
2022/01/16 07:26:54;;;;;;;10.63;9.52;;;;;;;;;;6207195;23;20009;-41
2022/01/16 07:29:20;;;;;;;11.05;9.80;;;;;;;;;;6206927;23;20616;-42
2022/01/16 07:31:45;;;;;;;9.95;8.93;;;;;;;;;;6207363;23;20012;-42
2022/01/16 07:34:10;;;;;;;10.23;9.23;;;;;;;;;;6207803;23;20769;-41
2022/01/16 07:36:37;;;;;;;10.57;9.65;;;;;;;;;;6206932;23;20040;-41
2022/01/16 07:39:02;;;;;;;10.20;9.20;;;;;;;;;;6208010;23;20052;-41
2022/01/16 07:41:27;;;;;;;10.10;8.95;;;;;;;;;;6206934;23;20013;-43
2022/01/16 07:43:53;;;;;;;8.75;7.70;;;;;;;;;;6207416;23;20027;-43
2022/01/16 07:46:18;;;;;;;9.15;7.70;;;;;;;;;;6206265;23;20016;-41
2022/01/16 07:48:43;;;;;;;9.65;8.63;;;;;;;;;;6207375;23;20073;-42
2022/01/16 07:51:09;;;;;;;9.55;7.65;;;;;;;;;;6206931;23;20028;-41
2022/01/16 07:53:34;;;;;;;10.50;8.55;;;;;;;;;;6206090;23;20407;-41
2022/01/16 07:56:00;;;;;;;7.88;7.07;;;;;;;;;;6207774;23;20017;-41
2022/01/16 07:58:25;;;;;;;8.93;7.95;;;;;;;;;;6206262;23;20024;-41
2022/01/16 08:00:50;;;;;;;10.68;8.90;;;;;;;;;;6207018;23;20009;-42
2022/01/16 08:03:15;;;;;;;8.23;7.10;;;;;;;;;;6206745;23;20079;-42
2022/01/16 08:05:41;;;;;;;8.10;7.30;;;;;;;;;;6206819;23;20053;-42
2022/01/16 08:08:06;;;;;;;8.85;7.95;;;;;;;;;;6206170;23;20053;-41
2022/01/16 08:10:31;;;;;;;8.82;7.60;;;;;;;;;;6206496;23;20029;-41
2022/01/16 08:12:58;;;;;;;8.57;7.72;;;;;;;;;;6206082;23;20016;-41
2022/01/16 08:15:23;;;;;;;7.95;7.25;;;;;;;;;;6206731;23;20099;-41
2022/01/16 08:17:49;;;;;;;8.27;7.47;;;;;;;;;;6206262;23;20029;-42
2022/01/16 08:20:14;;;;;;;8.80;7.65;;;;;;;;;;6206038;23;20015;-44
2022/01/16 08:22:39;;;;;;;9.20;7.88;;;;;;;;;;6206916;23;20430;-42
2022/01/16 08:25:05;;;;;;;9.05;8.15;;;;;;;;;;6206794;23;20008;-43
2022/01/16 08:27:31;;;;;;;9.32;8.05;;;;;;;;;;6207052;23;20020;-43
2022/01/16 08:29:56;;;;;;;9.07;8.18;;;;;;;;;;6208095;23;20323;-42
2022/01/16 08:32:21;;;;;;;8.38;7.68;;;;;;;;;;6208381;23;20123;-42
2022/01/16 08:34:46;;;;;;;8.95;8.00;;;;;;;;;;6208930;23;20036;-42
2022/01/16 08:37:12;;;;;;;9.57;7.75;;;;;;;;;;6207872;23;20020;-41
2022/01/16 08:39:37;;;;;;;9.93;7.80;;;;;;;;;;6208902;23;20055;-42
2022/01/16 08:42:02;;;;;;;7.90;7.20;;;;;;;;;;6208774;23;20494;-41
2022/01/16 08:44:28;;;;;;;10.60;8.35;;;;;;;;;;6208011;23;20024;-41
2022/01/16 08:46:53;;;;;;;7.88;7.07;;;;;;;;;;6209181;23;20008;-41
2022/01/16 08:49:18;;;;;;;8.73;7.72;;;;;;;;;;6207735;23;20184;-41
2022/01/16 08:51:43;;;;;;;9.13;7.78;;;;;;;;;;6208407;23;20028;-41
2022/01/16 08:54:09;;;;;;;8.63;7.50;;;;;;;;;;6208517;23;20147;-42
2022/01/16 08:56:34;;;;;;;8.57;7.78;;;;;;;;;;6208424;23;20036;-41
2022/01/16 08:58:59;;;;;;;9.35;8.15;;;;;;;;;;6208499;23;20024;-42
2022/01/16 09:01:25;;;;;;;9.10;8.25;;;;;;;;;;6208109;23;20484;-42
2022/01/16 09:03:50;;;;;;;7.93;7.20;;;;;;;;;;6208060;23;20068;-43
2022/01/16 09:06:16;;;;;;;9.75;8.65;;;;;;;;;;6208404;23;20021;-41
2022/01/16 09:08:41;;;;;;;8.52;7.72;;;;;;;;;;6208757;23;20017;-45
2022/01/16 09:11:07;;;;;;;9.90;8.90;;;;;;;;;;6208288;23;20013;-43
2022/01/16 09:13:32;;;;;;;9.07;8.18;;;;;;;;;;6208220;23;20019;-41
2022/01/16 09:15:58;;;;;;;8.05;7.30;;;;;;;;;;6182022;23;20082;-41
2022/01/16 09:18:23;;;;;;;8.77;7.88;;;;;;;;;;6208125;23;20034;-41
2022/01/16 09:20:48;;;;;;;9.13;8.23;;;;;;;;;;6208741;23;20017;-41
2022/01/16 09:23:13;;;;;;;10.48;8.05;;;;;;;;;;6207963;23;20103;-42
2022/01/16 09:25:39;;;;;;;10.35;7.60;;;;;;;;;;6207973;23;20011;-41
2022/01/16 09:28:04;;;;;;;10.40;8.00;;;;;;;;;;6208453;23;20009;-42
2022/01/16 09:30:30;;;;;;;8.40;7.50;;;;;;;;;;6207341;23;20059;-42
2022/01/16 09:32:55;;;;;;;10.05;7.28;;;;;;;;;;6208717;23;20017;-41
2022/01/16 09:35:21;;;;;;;9.70;8.27;;;;;;;;;;6208868;23;20004;-46
2022/01/16 09:37:46;;;;;;;8.73;7.40;;;;;;;;;;6208430;23;20017;-45
2022/01/16 09:40:14;;;;;;;9.82;7.63;;;;;;;;;;6208359;23;20036;-41
2022/01/16 09:42:40;;;;;;;9.75;7.88;;;;;;;;;;6208591;23;20019;-41
2022/01/16 09:45:06;;;;;;;8.88;8.00;;;;;;;;;;6208393;23;20008;-41
2022/01/16 09:47:32;;;;;;;11.23;7.32;;;;;;;;;;6207632;23;20021;-42
2022/01/16 09:49:57;;;;;;;9.15;8.27;;;;;;;;;;6207586;23;20051;-43
2022/01/16 09:52:22;;;;;;;9.60;8.60;;;;;;;;;;6207256;23;20443;-41
2022/01/16 09:54:49;;;;;;;7.72;6.93;;;;;;;;;;6205056;23;20015;-41
2022/01/16 09:57:15;;;;;;;7.65;6.93;;;;;;;;;;6206709;23;20024;-41
2022/01/16 09:59:40;;;;;;;8.75;7.72;;;;;;;;;;6181308;23;20013;-41
2022/01/16 10:02:06;;;;;;;8.85;7.95;;;;;;;;;;6207515;23;20019;-41
2022/01/16 10:04:35;;;;;;;9.15;7.90;;;;;;;;;;6207588;23;20039;-41
2022/01/16 10:07:02;;;;;;;8.00;7.20;;;;;;;;;;6208446;23;20016;-41
2022/01/16 10:09:28;;;;;;;8.63;7.82;;;;;;;;;;6200607;23;20524;-42
2022/01/16 10:11:55;;;;;;;9.88;7.65;;;;;;;;;;6203528;23;20012;-42
2022/01/16 10:14:26;;;;;;;10.48;7.78;;;;;;;;;;6202597;23;20016;-41
2022/01/16 10:16:52;;;;;;;8.07;7.28;;;;;;;;;;6168589;23;20503;-41
2022/01/16 10:19:19;;;;;;;9.13;7.57;;;;;;;;;;6198896;23;20114;-44
2022/01/16 10:21:44;;;;;;;9.07;7.78;;;;;;;;;;6201999;23;20020;-41
2022/01/16 10:24:26;;;;;;;8.55;7.75;;;;;;;;;;6201255;23;20020;-41
2022/01/16 10:27:06;;;;;;;7.82;7.07;;;;;;;;;;6202858;23;20435;-43
2022/01/16 10:29:31;;;;;;;7.85;7.10;;;;;;;;;;6202107;23;20063;-42
2022/01/16 10:32:09;;;;;;;11.27;8.25;;;;;;;;;;6202042;23;20357;-41
2022/01/16 10:34:34;;;;;;;8.48;7.68;;;;;;;;;;6203148;23;20008;-41
2022/01/16 10:37:00;;;;;;;8.32;7.30;;;;;;;;;;6203087;23;20016;-41
2022/01/16 10:39:25;;;;;;;9.13;6.93;;;;;;;;;;6200466;23;20020;-43
2022/01/16 10:42:09;;;;;;;7.85;7.13;;;;;;;;;;6200826;23;20032;-42
2022/01/16 10:44:35;;;;;;;9.77;7.13;;;;;;;;;;6202457;23;20012;-41
2022/01/16 10:47:20;;;;;;;8.88;6.55;;;;;;;;;;6203446;23;20020;-42
2022/01/16 10:49:56;;;;;;;8.25;7.43;;;;;;;;;;6172886;23;20017;-42
2022/01/16 10:52:22;;;;;;;9.05;7.35;;;;;;;;;;6200104;23;20019;-41
2022/01/16 10:54:47;;;;;;;7.72;6.93;;;;;;;;;;6200446;23;20064;-41
2022/01/16 10:57:19;;;;;;;7.55;6.85;;;;;;;;;;6199531;23;20016;-42
2022/01/16 10:59:44;;;;;;;8.38;7.55;;;;;;;;;;6199991;23;20075;-43
2022/01/16 11:02:10;;;;;;;7.85;7.10;;;;;;;;;;6200609;23;20020;-42
2022/01/16 11:04:35;;;;;;;7.97;7.20;;;;;;;;;;6198666;23;20009;-42
2022/01/16 11:07:01;;;;;;;8.18;7.47;;;;;;;;;;6200790;23;20012;-44
2022/01/16 11:09:28;;;;;;;7.25;6.57;;;;;;;;;;6199633;23;20020;-42
2022/01/16 11:11:59;;;;;;;7.05;6.40;;;;;;;;;;6200099;23;20021;-43
2022/01/16 11:14:28;;;;;;;9.77;6.65;;;;;;;;;;6198675;23;20013;-42
2022/01/16 11:16:57;;;;;;;6.80;6.20;;;;;;;;;;6200940;23;20035;-42
2022/01/16 11:19:24;;;;;;;6.40;5.78;;;;;;;;;;6198230;23;20103;-41
2022/01/16 11:22:03;;;;;;;7.20;6.50;;;;;;;;;;6200089;23;20120;-42
2022/01/16 11:26:54;;;;;;;6.18;5.60;;;;;;;;;;6202814;23;20016;-42
2022/01/16 11:29:19;;;;;;;6.80;6.15;;;;;;;;;;6201458;23;20012;-42
2022/01/16 11:31:45;;;;;;;7.18;6.38;;;;;;;;;;6204592;23;20009;-42
2022/01/16 11:34:11;;;;;;;7.40;6.60;;;;;;;;;;6202545;23;20067;-43
2022/01/16 11:36:36;;;;;;;7.05;6.45;;;;;;;;;;6202842;23;20020;-42
2022/01/16 11:39:04;;;;;;;6.90;6.30;;;;;;;;;;6202834;23;20016;-44
2022/01/16 11:41:35;;;;;;;7.57;6.88;;;;;;;;;;6150905;23;20027;-44
2022/01/16 11:44:05;;;;;;;6.22;5.10;;;;;;;;;;6202470;23;20020;-44
2022/01/16 11:46:31;;;;;;;6.18;5.63;;;;;;;;;;6201283;23;20079;-41
2022/01/16 11:49:00;;;;;;;5.90;5.47;;;;;;;;;;6175307;23;20017;-43
2022/01/16 11:51:35;;;;;;;5.85;5.35;;;;;;;;;;6201456;23;20020;-41
2022/01/16 11:54:19;;;;;;;5.85;5.20;;;;;;;;;;6202633;23;20020;-42
2022/01/16 11:56:44;;;;;;;5.70;5.30;;;;;;;;;;6201847;23;20062;-41
2022/01/16 11:59:22;;;;;;;5.65;5.13;;;;;;;;;;6202390;23;20013;-42
2022/01/16 12:01:58;;;;;;;5.38;4.95;;;;;;;;;;6180421;23;20013;-41
2022/01/16 12:04:29;;;;;;;6.03;5.53;;;;;;;;;;6203053;23;20083;-43
2022/01/16 12:07:13;;;;;;;5.70;5.20;;;;;;;;;;6203953;23;20012;-44
2022/01/16 12:09:46;;;;;;;5.13;4.72;;;;;;;;;;6203913;23;20009;-42
2022/01/16 12:12:14;;;;;;;6.20;5.70;;;;;;;;;;6203313;23;20730;-41
2022/01/16 12:14:47;;;;;;;6.80;6.13;;;;;;;;;;6204027;23;20009;-42
2022/01/16 12:17:27;;;;;;;5.82;5.32;;;;;;;;;;6202846;23;20741;-41
2022/01/16 12:19:53;;;;;;;6.43;5.93;;;;;;;;;;6203104;23;20012;-41
2022/01/16 12:22:38;;;;;;;5.50;5.10;;;;;;;;;;6203331;23;20480;-42
2022/01/16 12:25:04;;;;;;;5.93;5.32;;;;;;;;;;6203448;23;20104;-42
2022/01/16 12:27:44;;;;;;;6.10;5.50;;;;;;;;;;6201494;23;20477;-41
2022/01/16 12:30:12;;;;;;;6.18;5.60;;;;;;;;;;6202556;23;20126;-41
2022/01/16 12:32:49;;;;;;;5.40;4.90;;;;;;;;;;6202658;23;20423;-42
2022/01/16 12:35:15;;;;;;;4.97;4.45;;;;;;;;;;6202540;23;20020;-43
2022/01/16 12:37:43;;;;;;;4.78;4.47;;;;;;;;;;6204116;23;20013;-41
2022/01/16 12:40:08;;;;;;;5.07;4.63;;;;;;;;;;6203683;23;20041;-43
2022/01/16 12:42:34;;;;;;;5.60;4.68;;;;;;;;;;6203500;23;20481;-41
2022/01/16 12:44:59;;;;;;;4.40;4.03;;;;;;;;;;6204895;23;20024;-40
2022/01/16 12:47:25;;;;;;;4.45;4.05;;;;;;;;;;6203327;23;20075;-41
2022/01/16 12:49:52;;;;;;;4.65;4.25;;;;;;;;;;6202850;23;20044;-45
2022/01/16 12:52:18;;;;;;;4.38;4.07;;;;;;;;;;6203744;23;20366;-41
2022/01/16 12:54:48;;;;;;;3.95;3.55;;;;;;;;;;6203289;23;20505;-40
2022/01/16 12:57:24;;;;;;;3.38;3.10;;;;;;;;;;6203368;23;20017;-41
2022/01/16 12:59:49;;;;;;;3.40;3.15;;;;;;;;;;6203881;23;20040;-40
2022/01/16 13:02:15;;;;;;;4.00;3.53;;;;;;;;;;6201953;23;20021;-42
2022/01/16 13:04:44;;;;;;;3.45;3.15;;;;;;;;;;6202929;23;20015;-41
2022/01/16 13:07:10;;;;;;;5.35;2.88;;;;;;;;;;6203914;23;20684;-42
2022/01/16 13:09:36;;;;;;;3.17;2.97;;;;;;;;;;6202483;23;20472;-41
2022/01/16 13:12:02;;;;;;;3.53;3.22;;;;;;;;;;6203906;23;20017;-44
2022/01/16 13:14:28;;;;;;;3.17;2.97;;;;;;;;;;6203031;23;20473;-42
2022/01/16 13:16:55;;;;;;;3.28;3.00;;;;;;;;;;6203460;23;20044;-42
2022/01/16 13:19:22;;;;;;;5.13;4.18;;;;;;;;;;6203253;23;20032;-42
2022/01/16 13:21:58;;;;;;;3.70;3.38;;;;;;;;;;6172347;23;20524;-41
2022/01/16 13:24:27;;;;;;;3.28;2.97;;;;;;;;;;6200497;23;20087;-41
2022/01/16 13:26:52;;;;;;;3.17;2.88;;;;;;;;;;6174951;23;20012;-41
2022/01/16 13:29:19;;;;;;;3.67;3.38;;;;;;;;;;6200267;23;20016;-41
2022/01/16 13:31:45;;;;;;;2.85;2.53;;;;;;;;;;6200785;23;20794;-41
2022/01/16 13:34:11;;;;;;;2.95;2.58;;;;;;;;;;6201073;23;20021;-41
2022/01/16 13:36:37;;;;;;;3.55;2.78;;;;;;;;;;6200865;23;20016;-42
2022/01/16 13:39:03;;;;;;;3.60;3.30;;;;;;;;;;6200311;23;20028;-41
2022/01/16 13:41:28;;;;;;;4.85;3.00;;;;;;;;;;6200881;23;20017;-40
2022/01/16 13:43:54;;;;;;;2.97;2.78;;;;;;;;;;6201268;23;20019;-40
2022/01/16 13:46:19;;;;;;;2.97;2.78;;;;;;;;;;6200918;23;20055;-42
2022/01/16 13:48:46;;;;;;;2.53;2.33;;;;;;;;;;6200536;23;20065;-41
2022/01/16 13:51:12;;;;;;;3.28;3.08;;;;;;;;;;6200107;23;20070;-41
2022/01/16 13:53:42;;;;;;;2.88;2.65;;;;;;;;;;6201964;23;20092;-41
2022/01/16 13:56:13;;;;;;;3.53;2.67;;;;;;;;;;6173636;23;20040;-41
2022/01/16 13:58:54;;;;;;;2.65;2.45;;;;;;;;;;6199564;23;20027;-42
2022/01/16 14:01:25;;;;;;;3.47;3.17;;;;;;;;;;6175434;23;20091;-42
2022/01/16 14:03:52;;;;;;;3.22;2.30;;;;;;;;;;6201948;23;20024;-41
2022/01/16 14:06:17;;;;;;;3.08;2.88;;;;;;;;;;6201450;23;20646;-41
2022/01/16 14:08:49;;;;;;;2.97;2.78;;;;;;;;;;6202836;23;20023;-41
2022/01/16 14:11:16;;;;;;;4.68;3.42;;;;;;;;;;6203418;23;20019;-41
2022/01/16 14:13:47;;;;;;;2.92;2.72;;;;;;;;;;6203559;23;20062;-42
2022/01/16 14:16:13;;;;;;;2.97;2.78;;;;;;;;;;6202971;23;20033;-42
2022/01/16 14:19:04;;;;;;;3.03;2.70;;;;;;;;;;6203283;23;20012;-41
2022/01/16 14:24:02;;;;;;;2.25;2.13;;;;;;;;;;6206903;23;20012;-41
2022/01/16 14:26:27;;;;;;;2.35;2.13;;;;;;;;;;6206804;23;20762;-42
2022/01/16 14:28:53;;;;;;;3.08;2.75;;;;;;;;;;6205167;23;20054;-41
2022/01/16 14:31:18;;;;;;;2.40;2.20;;;;;;;;;;6207382;23;20094;-41
2022/01/16 14:33:43;;;;;;;2.90;2.55;;;;;;;;;;6207173;23;20000;-41
2022/01/16 14:36:09;;;;;;;3.08;2.78;;;;;;;;;;6207919;23;20025;-45
2022/01/16 14:38:38;;;;;;;2.72;2.47;;;;;;;;;;6205662;23;20028;-42
2022/01/16 14:41:03;;;;;;;2.55;2.35;;;;;;;;;;6207472;23;20159;-41
2022/01/16 14:43:36;;;;;;;2.47;2.33;;;;;;;;;;6205859;23;20085;-41
2022/01/16 14:46:01;;;;;;;2.50;2.30;;;;;;;;;;6207752;23;20138;-41
2022/01/16 14:48:27;;;;;;;3.05;2.40;;;;;;;;;;6205959;23;20060;-41
2022/01/16 14:50:52;;;;;;;3.00;2.80;;;;;;;;;;6207193;23;20028;-41
2022/01/16 14:53:19;;;;;;;2.88;2.67;;;;;;;;;;6206562;23;20030;-41
2022/01/16 14:55:45;;;;;;;3.25;2.95;;;;;;;;;;6207619;23;20008;-41
2022/01/16 14:58:10;;;;;;;3.20;2.90;;;;;;;;;;6206910;23;20454;-41
2022/01/16 15:00:36;;;;;;;2.78;2.50;;;;;;;;;;6206794;23;20468;-41
2022/01/16 15:03:01;;;;;;;2.25;2.13;;;;;;;;;;6207215;23;20005;-41
2022/01/16 15:05:26;;;;;;;3.03;2.55;;;;;;;;;;6206897;23;20016;-41
2022/01/16 15:07:51;;;;;;;4.47;2.83;;;;;;;;;;6207207;23;20092;-42
2022/01/16 15:10:17;;;;;;;2.22;2.03;;;;;;;;;;6206886;23;20017;-42
2022/01/16 15:12:42;;;;;;;3.63;3.00;;;;;;;;;;6207381;23;20362;-41
2022/01/16 15:15:08;;;;;;;2.55;2.28;;;;;;;;;;6207250;23;20075;-41
2022/01/16 15:17:41;;;;;;;2.75;2.15;;;;;;;;;;6206665;23;20021;-43
2022/01/16 15:20:08;;;;;;;1.90;1.80;;;;;;;;;;6207543;23;20016;-41
2022/01/16 15:22:34;;;;;;;2.10;1.90;;;;;;;;;;6205656;23;20020;-42
2022/01/16 15:24:59;;;;;;;1.70;1.60;;;;;;;;;;6207211;23;20017;-41
2022/01/16 15:27:26;;;;;;;1.80;1.70;;;;;;;;;;6206720;23;20013;-41